sensor_id;sensor_type;location;lat;lon;timestamp;pressure;altitude;pressure_sealevel;temperature
24740;BMP280;45234;48.148;17.128;2023-12-22T00:00:40;97637.56;;;8.03
24740;BMP280;45234;48.148;17.128;2023-12-22T00:03:07;97653.38;;;8.07
24740;BMP280;45234;48.148;17.128;2023-12-22T00:05:34;97656.53;;;8.09
24740;BMP280;45234;48.148;17.128;2023-12-22T00:08:01;97660.91;;;8.08
24740;BMP280;45234;48.148;17.128;2023-12-22T00:10:28;97660.13;;;8.08
24740;BMP280;45234;48.148;17.128;2023-12-22T00:12:55;97665.03;;;8.09
24740;BMP280;45234;48.148;17.128;2023-12-22T00:15:22;97674.78;;;8.07
24740;BMP280;45234;48.148;17.128;2023-12-22T00:17:49;97684.91;;;8.09
24740;BMP280;45234;48.148;17.128;2023-12-22T00:20:16;97694.75;;;8.12
24740;BMP280;45234;48.148;17.128;2023-12-22T00:22:43;97686.22;;;8.11
24740;BMP280;45234;48.148;17.128;2023-12-22T00:25:10;97694.97;;;8.10
24740;BMP280;45234;48.148;17.128;2023-12-22T00:27:37;97698.22;;;8.06
24740;BMP280;45234;48.148;17.128;2023-12-22T00:30:04;97717.75;;;8.02
24740;BMP280;45234;48.148;17.128;2023-12-22T00:32:31;97730.91;;;8.00
24740;BMP280;45234;48.148;17.128;2023-12-22T00:34:58;97726.22;;;7.97
24740;BMP280;45234;48.148;17.128;2023-12-22T00:37:26;97725.84;;;7.93
24740;BMP280;45234;48.148;17.128;2023-12-22T00:39:53;97724.50;;;7.91
24740;BMP280;45234;48.148;17.128;2023-12-22T00:42:23;97730.94;;;7.88
24740;BMP280;45234;48.148;17.128;2023-12-22T00:44:50;97695.06;;;7.87
24740;BMP280;45234;48.148;17.128;2023-12-22T00:47:17;97664.69;;;7.89
24740;BMP280;45234;48.148;17.128;2023-12-22T00:49:44;97684.81;;;7.92
24740;BMP280;45234;48.148;17.128;2023-12-22T00:52:11;97700.84;;;7.94
24740;BMP280;45234;48.148;17.128;2023-12-22T00:54:38;97700.06;;;7.93
24740;BMP280;45234;48.148;17.128;2023-12-22T00:57:08;97721.47;;;7.94
24740;BMP280;45234;48.148;17.128;2023-12-22T00:59:35;97718.34;;;7.92
24740;BMP280;45234;48.148;17.128;2023-12-22T01:02:01;97734.81;;;7.91
24740;BMP280;45234;48.148;17.128;2023-12-22T01:04:28;97732.25;;;7.91
24740;BMP280;45234;48.148;17.128;2023-12-22T01:06:55;97734.31;;;7.89
24740;BMP280;45234;48.148;17.128;2023-12-22T01:09:22;97719.25;;;7.86
24740;BMP280;45234;48.148;17.128;2023-12-22T01:11:49;97714.31;;;7.84
24740;BMP280;45234;48.148;17.128;2023-12-22T01:14:16;97737.75;;;7.83
24740;BMP280;45234;48.148;17.128;2023-12-22T01:16:43;97749.88;;;7.82
24740;BMP280;45234;48.148;17.128;2023-12-22T01:19:10;97737.69;;;7.78
24740;BMP280;45234;48.148;17.128;2023-12-22T01:21:37;97727.38;;;7.78
24740;BMP280;45234;48.148;17.128;2023-12-22T01:24:04;97732.53;;;7.78
24740;BMP280;45234;48.148;17.128;2023-12-22T01:26:31;97711.44;;;7.81
24740;BMP280;45234;48.148;17.128;2023-12-22T01:28:58;97730.47;;;7.80
24740;BMP280;45234;48.148;17.128;2023-12-22T01:31:25;97731.16;;;7.87
24740;BMP280;45234;48.148;17.128;2023-12-22T01:33:52;97744.13;;;7.92
24740;BMP280;45234;48.148;17.128;2023-12-22T01:36:19;97738.50;;;7.95
24740;BMP280;45234;48.148;17.128;2023-12-22T01:38:45;97743.25;;;7.98
24740;BMP280;45234;48.148;17.128;2023-12-22T01:41:12;97760.84;;;8.01
24740;BMP280;45234;48.148;17.128;2023-12-22T01:43:40;97774.03;;;8.05
24740;BMP280;45234;48.148;17.128;2023-12-22T01:46:07;97730.91;;;8.00
24740;BMP280;45234;48.148;17.128;2023-12-22T01:48:35;97751.53;;;8.00
24740;BMP280;45234;48.148;17.128;2023-12-22T01:51:04;97740.84;;;8.08
24740;BMP280;45234;48.148;17.128;2023-12-22T01:53:32;97724.72;;;8.01
24740;BMP280;45234;48.148;17.128;2023-12-22T01:56:04;97715.94;;;8.02
24740;BMP280;45234;48.148;17.128;2023-12-22T01:58:34;97750.94;;;8.10
24740;BMP280;45234;48.148;17.128;2023-12-22T02:01:12;97751.81;;;8.04
24740;BMP280;45234;48.148;17.128;2023-12-22T02:03:40;97755.69;;;8.01
24740;BMP280;45234;48.148;17.128;2023-12-22T02:06:07;97757.22;;;8.02
24740;BMP280;45234;48.148;17.128;2023-12-22T02:08:35;97746.84;;;7.97
24740;BMP280;45234;48.148;17.128;2023-12-22T02:11:03;97740.09;;;7.96
24740;BMP280;45234;48.148;17.128;2023-12-22T02:13:30;97749.84;;;7.94
24740;BMP280;45234;48.148;17.128;2023-12-22T02:16:04;97737.66;;;7.89
24740;BMP280;45234;48.148;17.128;2023-12-22T02:18:35;97741.25;;;7.88
24740;BMP280;45234;48.148;17.128;2023-12-22T02:21:05;97763.50;;;7.94
24740;BMP280;45234;48.148;17.128;2023-12-22T02:23:32;97748.41;;;7.98
24740;BMP280;45234;48.148;17.128;2023-12-22T02:26:10;97762.19;;;7.92
24740;BMP280;45234;48.148;17.128;2023-12-22T02:28:40;97772.63;;;7.97
24740;BMP280;45234;48.148;17.128;2023-12-22T02:31:17;97782.28;;;7.90
24740;BMP280;45234;48.148;17.128;2023-12-22T02:33:48;97796.25;;;7.94
24740;BMP280;45234;48.148;17.128;2023-12-22T02:36:17;97806.56;;;7.94
24740;BMP280;45234;48.148;17.128;2023-12-22T02:38:46;97799.78;;;7.88
24740;BMP280;45234;48.148;17.128;2023-12-22T02:41:14;97807.81;;;7.80
24740;BMP280;45234;48.148;17.128;2023-12-22T02:43:41;97806.16;;;7.74
24740;BMP280;45234;48.148;17.128;2023-12-22T02:46:15;97797.19;;;7.64
24740;BMP280;45234;48.148;17.128;2023-12-22T02:48:42;97804.94;;;7.64
24740;BMP280;45234;48.148;17.128;2023-12-22T02:51:09;97793.84;;;7.64
24740;BMP280;45234;48.148;17.128;2023-12-22T02:53:36;97792.03;;;7.64
24740;BMP280;45234;48.148;17.128;2023-12-22T02:56:03;97790.38;;;7.58
24740;BMP280;45234;48.148;17.128;2023-12-22T02:58:30;97810.44;;;7.56
24740;BMP280;45234;48.148;17.128;2023-12-22T03:00:57;97811.53;;;7.49
24740;BMP280;45234;48.148;17.128;2023-12-22T03:03:24;97835.75;;;7.48
24740;BMP280;45234;48.148;17.128;2023-12-22T03:05:51;97831.84;;;7.45
24740;BMP280;45234;48.148;17.128;2023-12-22T03:08:18;97830.69;;;7.41
24740;BMP280;45234;48.148;17.128;2023-12-22T03:10:45;97829.22;;;7.33
24740;BMP280;45234;48.148;17.128;2023-12-22T03:13:11;97834.84;;;7.30
24740;BMP280;45234;48.148;17.128;2023-12-22T03:15:38;97832.13;;;7.25
24740;BMP280;45234;48.148;17.128;2023-12-22T03:18:05;97825.97;;;7.26
24740;BMP280;45234;48.148;17.128;2023-12-22T03:20:35;97836.91;;;7.22
24740;BMP280;45234;48.148;17.128;2023-12-22T03:23:02;97828.66;;;7.20
24740;BMP280;45234;48.148;17.128;2023-12-22T03:25:29;97826.75;;;7.15
24740;BMP280;45234;48.148;17.128;2023-12-22T03:27:55;97826.19;;;7.13
24740;BMP280;45234;48.148;17.128;2023-12-22T03:30:22;97826.28;;;7.07
24740;BMP280;45234;48.148;17.128;2023-12-22T03:32:50;97826.50;;;7.05
24740;BMP280;45234;48.148;17.128;2023-12-22T03:35:16;97827.91;;;7.01
24740;BMP280;45234;48.148;17.128;2023-12-22T03:37:43;97835.31;;;6.97
24740;BMP280;45234;48.148;17.128;2023-12-22T03:40:11;97836.22;;;6.91
24740;BMP280;45234;48.148;17.128;2023-12-22T03:42:38;97830.28;;;6.91
24740;BMP280;45234;48.148;17.128;2023-12-22T03:45:05;97835.06;;;6.87
24740;BMP280;45234;48.148;17.128;2023-12-22T03:47:33;97837.06;;;6.85
24740;BMP280;45234;48.148;17.128;2023-12-22T03:49:59;97847.03;;;6.82
24740;BMP280;45234;48.148;17.128;2023-12-22T03:52:29;97832.22;;;6.77
24740;BMP280;45234;48.148;17.128;2023-12-22T03:54:56;97838.81;;;6.73
24740;BMP280;45234;48.148;17.128;2023-12-22T03:57:23;97832.53;;;6.69
24740;BMP280;45234;48.148;17.128;2023-12-22T03:59:50;97827.81;;;6.66
24740;BMP280;45234;48.148;17.128;2023-12-22T04:02:17;97834.63;;;6.60
24740;BMP280;45234;48.148;17.128;2023-12-22T04:04:44;97846.13;;;6.58
24740;BMP280;45234;48.148;17.128;2023-12-22T04:07:12;97845.00;;;6.54
24740;BMP280;45234;48.148;17.128;2023-12-22T04:09:39;97843.66;;;6.51
24740;BMP280;45234;48.148;17.128;2023-12-22T04:12:06;97847.56;;;6.54
24740;BMP280;45234;48.148;17.128;2023-12-22T04:14:33;97838.13;;;6.48
24740;BMP280;45234;48.148;17.128;2023-12-22T04:17:00;97860.31;;;6.49
24740;BMP280;45234;48.148;17.128;2023-12-22T04:19:27;97867.41;;;6.47
24740;BMP280;45234;48.148;17.128;2023-12-22T04:21:54;97864.06;;;6.46
24740;BMP280;45234;48.148;17.128;2023-12-22T04:24:21;97862.22;;;6.53
24740;BMP280;45234;48.148;17.128;2023-12-22T04:26:47;97864.00;;;6.53
24740;BMP280;45234;48.148;17.128;2023-12-22T04:29:15;97841.16;;;6.45
24740;BMP280;45234;48.148;17.128;2023-12-22T04:31:42;97848.41;;;6.48
24740;BMP280;45234;48.148;17.128;2023-12-22T04:34:09;97851.78;;;6.48
24740;BMP280;45234;48.148;17.128;2023-12-22T04:36:36;97847.88;;;6.46
24740;BMP280;45234;48.148;17.128;2023-12-22T04:39:03;97854.38;;;6.48
24740;BMP280;45234;48.148;17.128;2023-12-22T04:41:30;97858.16;;;6.46
24740;BMP280;45234;48.148;17.128;2023-12-22T04:43:57;97860.94;;;6.44
24740;BMP280;45234;48.148;17.128;2023-12-22T04:46:24;97873.16;;;6.49
24740;BMP280;45234;48.148;17.128;2023-12-22T04:48:50;97873.59;;;6.46
24740;BMP280;45234;48.148;17.128;2023-12-22T04:51:17;97888.16;;;6.52
24740;BMP280;45234;48.148;17.128;2023-12-22T04:53:44;97892.75;;;6.50
24740;BMP280;45234;48.148;17.128;2023-12-22T04:56:11;97895.72;;;6.47
24740;BMP280;45234;48.148;17.128;2023-12-22T04:58:38;97914.31;;;6.49
24740;BMP280;45234;48.148;17.128;2023-12-22T05:01:05;97911.63;;;6.44
24740;BMP280;45234;48.148;17.128;2023-12-22T05:03:32;97917.56;;;6.44
24740;BMP280;45234;48.148;17.128;2023-12-22T05:05:59;97921.25;;;6.48
24740;BMP280;45234;48.148;17.128;2023-12-22T05:08:26;97927.13;;;6.55
24740;BMP280;45234;48.148;17.128;2023-12-22T05:10:53;97926.91;;;6.57
24740;BMP280;45234;48.148;17.128;2023-12-22T05:13:21;97940.47;;;6.64
24740;BMP280;45234;48.148;17.128;2023-12-22T05:15:48;97935.81;;;6.73
24740;BMP280;45234;48.148;17.128;2023-12-22T05:18:15;97935.75;;;6.79
24740;BMP280;45234;48.148;17.128;2023-12-22T05:20:43;97943.63;;;6.84
24740;BMP280;45234;48.148;17.128;2023-12-22T05:23:10;97935.44;;;6.87
24740;BMP280;45234;48.148;17.128;2023-12-22T05:25:37;97924.31;;;6.93
24740;BMP280;45234;48.148;17.128;2023-12-22T05:28:04;97933.59;;;6.94
24740;BMP280;45234;48.148;17.128;2023-12-22T05:30:31;97936.50;;;6.98
24740;BMP280;45234;48.148;17.128;2023-12-22T05:32:58;97938.47;;;7.03
24740;BMP280;45234;48.148;17.128;2023-12-22T05:35:25;97940.03;;;7.04
24740;BMP280;45234;48.148;17.128;2023-12-22T05:37:52;97950.91;;;7.06
24740;BMP280;45234;48.148;17.128;2023-12-22T05:40:19;97958.72;;;7.11
24740;BMP280;45234;48.148;17.128;2023-12-22T05:42:46;97964.47;;;7.13
24740;BMP280;45234;48.148;17.128;2023-12-22T05:45:14;97945.66;;;7.12
24740;BMP280;45234;48.148;17.128;2023-12-22T05:47:41;97949.94;;;7.18
24740;BMP280;45234;48.148;17.128;2023-12-22T05:50:08;97954.31;;;7.18
24740;BMP280;45234;48.148;17.128;2023-12-22T05:52:37;97951.94;;;7.16
24740;BMP280;45234;48.148;17.128;2023-12-22T05:55:05;97951.16;;;7.16
24740;BMP280;45234;48.148;17.128;2023-12-22T05:57:32;97950.81;;;7.12
24740;BMP280;45234;48.148;17.128;2023-12-22T06:00:00;97941.72;;;7.10
24740;BMP280;45234;48.148;17.128;2023-12-22T06:02:31;97941.38;;;7.06
24740;BMP280;45234;48.148;17.128;2023-12-22T06:04:58;97932.72;;;7.00
24740;BMP280;45234;48.148;17.128;2023-12-22T06:07:26;97931.81;;;6.95
24740;BMP280;45234;48.148;17.128;2023-12-22T06:09:53;97915.44;;;6.89
24740;BMP280;45234;48.148;17.128;2023-12-22T06:12:20;97919.44;;;6.85
24740;BMP280;45234;48.148;17.128;2023-12-22T06:14:47;97914.19;;;6.80
24740;BMP280;45234;48.148;17.128;2023-12-22T06:17:14;97924.31;;;6.75
24740;BMP280;45234;48.148;17.128;2023-12-22T06:19:40;97934.50;;;6.70
24740;BMP280;45234;48.148;17.128;2023-12-22T06:22:07;97932.13;;;6.68
24740;BMP280;45234;48.148;17.128;2023-12-22T06:24:37;97938.06;;;6.69
24740;BMP280;45234;48.148;17.128;2023-12-22T06:27:04;97940.63;;;6.69
24740;BMP280;45234;48.148;17.128;2023-12-22T06:29:34;97935.91;;;6.66
24740;BMP280;45234;48.148;17.128;2023-12-22T06:32:01;97927.63;;;6.64
24740;BMP280;45234;48.148;17.128;2023-12-22T06:34:28;97919.75;;;6.59
24740;BMP280;45234;48.148;17.128;2023-12-22T06:36:55;97932.06;;;6.57
24740;BMP280;45234;48.148;17.128;2023-12-22T06:39:22;97935.47;;;6.51
24740;BMP280;45234;48.148;17.128;2023-12-22T06:41:49;97934.31;;;6.47
24740;BMP280;45234;48.148;17.128;2023-12-22T06:44:15;97944.28;;;6.43
24740;BMP280;45234;48.148;17.128;2023-12-22T06:46:42;97958.34;;;6.41
24740;BMP280;45234;48.148;17.128;2023-12-22T06:49:09;97959.75;;;6.36
24740;BMP280;45234;48.148;17.128;2023-12-22T06:51:36;97948.88;;;6.34
24740;BMP280;45234;48.148;17.128;2023-12-22T06:54:04;97952.91;;;6.30
24740;BMP280;45234;48.148;17.128;2023-12-22T06:56:34;97948.38;;;6.26
24740;BMP280;45234;48.148;17.128;2023-12-22T06:59:02;97967.59;;;6.23
24740;BMP280;45234;48.148;17.128;2023-12-22T07:01:34;97961.72;;;6.16
24740;BMP280;45234;48.148;17.128;2023-12-22T07:04:03;97965.28;;;6.15
24740;BMP280;45234;48.148;17.128;2023-12-22T07:06:31;97953.44;;;6.14
24740;BMP280;45234;48.148;17.128;2023-12-22T07:14:14;97956.72;;;6.21
24740;BMP280;45234;48.148;17.128;2023-12-22T07:16:42;97966.78;;;6.29
24740;BMP280;45234;48.148;17.128;2023-12-22T07:19:10;97968.06;;;6.39
24740;BMP280;45234;48.148;17.128;2023-12-22T07:21:41;97985.22;;;6.45
24740;BMP280;45234;48.148;17.128;2023-12-22T07:24:12;97978.66;;;6.49
24740;BMP280;45234;48.148;17.128;2023-12-22T07:26:41;97977.22;;;6.53
24740;BMP280;45234;48.148;17.128;2023-12-22T07:29:09;97977.50;;;6.63
24740;BMP280;45234;48.148;17.128;2023-12-22T07:31:36;97977.38;;;6.76
24740;BMP280;45234;48.148;17.128;2023-12-22T07:34:03;97982.25;;;6.84
24740;BMP280;45234;48.148;17.128;2023-12-22T07:36:30;97986.16;;;6.87
24740;BMP280;45234;48.148;17.128;2023-12-22T07:38:57;97988.50;;;6.88
24740;BMP280;45234;48.148;17.128;2023-12-22T07:41:26;97989.91;;;6.91
24740;BMP280;45234;48.148;17.128;2023-12-22T07:43:52;97998.97;;;6.93
24740;BMP280;45234;48.148;17.128;2023-12-22T07:46:20;97998.09;;;6.99
24740;BMP280;45234;48.148;17.128;2023-12-22T07:48:50;97990.66;;;7.10
24740;BMP280;45234;48.148;17.128;2023-12-22T07:51:18;97988.09;;;7.10
24740;BMP280;45234;48.148;17.128;2023-12-22T07:53:45;97995.94;;;7.15
24740;BMP280;45234;48.148;17.128;2023-12-22T07:56:12;98007.59;;;7.17
24740;BMP280;45234;48.148;17.128;2023-12-22T07:58:39;98014.09;;;7.20
24740;BMP280;45234;48.148;17.128;2023-12-22T08:01:06;98005.50;;;7.26
24740;BMP280;45234;48.148;17.128;2023-12-22T08:03:34;98007.66;;;7.29
24740;BMP280;45234;48.148;17.128;2023-12-22T08:06:01;98017.53;;;7.32
24740;BMP280;45234;48.148;17.128;2023-12-22T08:08:28;98007.06;;;7.45
24740;BMP280;45234;48.148;17.128;2023-12-22T08:10:55;98002.72;;;7.57
24740;BMP280;45234;48.148;17.128;2023-12-22T08:13:22;97997.13;;;7.60
24740;BMP280;45234;48.148;17.128;2023-12-22T08:15:49;97994.97;;;7.57
24740;BMP280;45234;48.148;17.128;2023-12-22T08:18:17;98007.63;;;7.47
24740;BMP280;45234;48.148;17.128;2023-12-22T08:20:45;97996.97;;;7.44
24740;BMP280;45234;48.148;17.128;2023-12-22T08:23:15;98003.75;;;7.56
24740;BMP280;45234;48.148;17.128;2023-12-22T08:25:43;98006.78;;;7.65
24740;BMP280;45234;48.148;17.128;2023-12-22T08:28:12;98004.53;;;7.69
24740;BMP280;45234;48.148;17.128;2023-12-22T08:30:40;98007.81;;;7.76
24740;BMP280;45234;48.148;17.128;2023-12-22T08:33:07;98013.00;;;7.87
24740;BMP280;45234;48.148;17.128;2023-12-22T08:35:34;98020.63;;;7.94
24740;BMP280;45234;48.148;17.128;2023-12-22T08:38:01;98021.00;;;7.97
24740;BMP280;45234;48.148;17.128;2023-12-22T08:40:29;98010.66;;;7.97
24740;BMP280;45234;48.148;17.128;2023-12-22T08:42:57;98017.81;;;7.95
24740;BMP280;45234;48.148;17.128;2023-12-22T08:45:28;98030.72;;;7.95
24740;BMP280;45234;48.148;17.128;2023-12-22T08:47:56;98028.91;;;7.96
24740;BMP280;45234;48.148;17.128;2023-12-22T08:50:23;98024.13;;;7.88
24740;BMP280;45234;48.148;17.128;2023-12-22T08:52:51;98031.25;;;7.86
24740;BMP280;45234;48.148;17.128;2023-12-22T08:55:18;98029.84;;;7.90
24740;BMP280;45234;48.148;17.128;2023-12-22T08:57:45;98020.75;;;7.99
24740;BMP280;45234;48.148;17.128;2023-12-22T09:00:25;98034.13;;;8.19
24740;BMP280;45234;48.148;17.128;2023-12-22T09:02:52;98027.94;;;8.44
24740;BMP280;45234;48.148;17.128;2023-12-22T09:05:21;98034.59;;;8.63
24740;BMP280;45234;48.148;17.128;2023-12-22T09:07:48;98027.47;;;8.70
24740;BMP280;45234;48.148;17.128;2023-12-22T09:10:16;98035.09;;;8.77
24740;BMP280;45234;48.148;17.128;2023-12-22T09:12:43;98020.16;;;8.79
24740;BMP280;45234;48.148;17.128;2023-12-22T09:15:10;98009.56;;;8.64
24740;BMP280;45234;48.148;17.128;2023-12-22T09:17:37;98027.72;;;8.57
24740;BMP280;45234;48.148;17.128;2023-12-22T09:20:05;98018.97;;;8.46
24740;BMP280;45234;48.148;17.128;2023-12-22T09:22:32;98032.66;;;8.35
24740;BMP280;45234;48.148;17.128;2023-12-22T09:25:00;98042.75;;;8.25
24740;BMP280;45234;48.148;17.128;2023-12-22T09:27:29;98037.56;;;8.13
24740;BMP280;45234;48.148;17.128;2023-12-22T09:29:57;98021.41;;;8.06
24740;BMP280;45234;48.148;17.128;2023-12-22T09:32:24;98012.91;;;8.06
24740;BMP280;45234;48.148;17.128;2023-12-22T09:34:52;98017.25;;;8.05
24740;BMP280;45234;48.148;17.128;2023-12-22T09:37:19;98012.81;;;8.01
24740;BMP280;45234;48.148;17.128;2023-12-22T09:39:46;98003.50;;;8.00
24740;BMP280;45234;48.148;17.128;2023-12-22T09:42:13;97995.84;;;8.05
24740;BMP280;45234;48.148;17.128;2023-12-22T09:44:43;97997.31;;;8.12
24740;BMP280;45234;48.148;17.128;2023-12-22T09:47:10;98001.16;;;8.21
24740;BMP280;45234;48.148;17.128;2023-12-22T09:49:39;97996.00;;;8.21
24740;BMP280;45234;48.148;17.128;2023-12-22T09:52:08;97999.44;;;8.27
24740;BMP280;45234;48.148;17.128;2023-12-22T09:54:37;97995.44;;;8.31
24740;BMP280;45234;48.148;17.128;2023-12-22T09:57:05;98019.09;;;8.40
24740;BMP280;45234;48.148;17.128;2023-12-22T09:59:49;98023.00;;;8.54
24740;BMP280;45234;48.148;17.128;2023-12-22T10:02:17;98020.06;;;8.74
24740;BMP280;45234;48.148;17.128;2023-12-22T10:04:44;98012.06;;;8.87
24740;BMP280;45234;48.148;17.128;2023-12-22T10:07:12;98013.41;;;8.89
24740;BMP280;45234;48.148;17.128;2023-12-22T10:09:42;98019.56;;;9.00
24740;BMP280;45234;48.148;17.128;2023-12-22T10:12:11;98018.78;;;9.00
24740;BMP280;45234;48.148;17.128;2023-12-22T10:14:40;98014.63;;;8.99
24740;BMP280;45234;48.148;17.128;2023-12-22T10:17:07;98024.53;;;8.90
24740;BMP280;45234;48.148;17.128;2023-12-22T10:19:35;98016.69;;;8.85
24740;BMP280;45234;48.148;17.128;2023-12-22T10:22:02;98009.25;;;8.88
24740;BMP280;45234;48.148;17.128;2023-12-22T10:27:11;98012.66;;;9.17
24740;BMP280;45234;48.148;17.128;2023-12-22T10:29:38;98014.72;;;9.32
24740;BMP280;45234;48.148;17.128;2023-12-22T10:32:07;98021.56;;;9.38
24740;BMP280;45234;48.148;17.128;2023-12-22T10:34:35;98012.78;;;9.39
24740;BMP280;45234;48.148;17.128;2023-12-22T10:37:03;98027.28;;;9.40
24740;BMP280;45234;48.148;17.128;2023-12-22T10:39:31;98033.50;;;9.27
24740;BMP280;45234;48.148;17.128;2023-12-22T10:41:59;98023.53;;;9.19
24740;BMP280;45234;48.148;17.128;2023-12-22T10:44:27;98026.16;;;9.08
24740;BMP280;45234;48.148;17.128;2023-12-22T10:46:55;98022.28;;;8.93
24740;BMP280;45234;48.148;17.128;2023-12-22T10:49:24;98024.75;;;8.88
24740;BMP280;45234;48.148;17.128;2023-12-22T10:51:51;98024.19;;;8.86
24740;BMP280;45234;48.148;17.128;2023-12-22T10:54:19;98021.84;;;8.85
24740;BMP280;45234;48.148;17.128;2023-12-22T10:56:46;98012.63;;;8.89
24740;BMP280;45234;48.148;17.128;2023-12-22T10:59:18;98023.63;;;8.84
24740;BMP280;45234;48.148;17.128;2023-12-22T11:01:46;97997.81;;;8.84
24740;BMP280;45234;48.148;17.128;2023-12-22T11:04:17;98007.69;;;8.87
24740;BMP280;45234;48.148;17.128;2023-12-22T11:06:49;97982.22;;;8.79
24740;BMP280;45234;48.148;17.128;2023-12-22T11:09:17;97984.25;;;8.77
24740;BMP280;45234;48.148;17.128;2023-12-22T11:11:47;98002.19;;;8.84
24740;BMP280;45234;48.148;17.128;2023-12-22T11:14:14;97992.41;;;8.86
24740;BMP280;45234;48.148;17.128;2023-12-22T11:16:42;98002.44;;;8.82
24740;BMP280;45234;48.148;17.128;2023-12-22T11:19:15;98000.97;;;8.75
24740;BMP280;45234;48.148;17.128;2023-12-22T11:21:43;97996.94;;;8.79
24740;BMP280;45234;48.148;17.128;2023-12-22T11:24:13;98001.50;;;8.88
24740;BMP280;45234;48.148;17.128;2023-12-22T11:26:42;98001.97;;;8.85
24740;BMP280;45234;48.148;17.128;2023-12-22T11:29:11;98003.16;;;8.94
24740;BMP280;45234;48.148;17.128;2023-12-22T11:31:39;98007.66;;;8.99
24740;BMP280;45234;48.148;17.128;2023-12-22T11:34:10;98007.09;;;8.97
24740;BMP280;45234;48.148;17.128;2023-12-22T11:36:44;97998.47;;;9.03
24740;BMP280;45234;48.148;17.128;2023-12-22T11:39:12;97997.94;;;9.18
24740;BMP280;45234;48.148;17.128;2023-12-22T11:41:40;97990.38;;;9.28
24740;BMP280;45234;48.148;17.128;2023-12-22T11:44:08;97993.59;;;9.35
24740;BMP280;45234;48.148;17.128;2023-12-22T11:46:35;97982.56;;;9.40
24740;BMP280;45234;48.148;17.128;2023-12-22T11:49:02;97985.66;;;9.42
24740;BMP280;45234;48.148;17.128;2023-12-22T11:51:34;97980.22;;;9.38
24740;BMP280;45234;48.148;17.128;2023-12-22T11:54:01;97987.72;;;9.40
24740;BMP280;45234;48.148;17.128;2023-12-22T11:56:29;97993.69;;;9.40
24740;BMP280;45234;48.148;17.128;2023-12-22T11:58:58;97982.47;;;9.51
24740;BMP280;45234;48.148;17.128;2023-12-22T12:01:27;97986.78;;;9.63
24740;BMP280;45234;48.148;17.128;2023-12-22T12:04:02;97993.53;;;9.64
24740;BMP280;45234;48.148;17.128;2023-12-22T12:06:33;97992.28;;;9.66
24740;BMP280;45234;48.148;17.128;2023-12-22T12:09:05;97987.81;;;9.78
24740;BMP280;45234;48.148;17.128;2023-12-22T12:14:33;97984.78;;;9.81
24740;BMP280;45234;48.148;17.128;2023-12-22T12:17:08;97976.44;;;9.96
24740;BMP280;45234;48.148;17.128;2023-12-22T12:19:38;97977.31;;;10.02
24740;BMP280;45234;48.148;17.128;2023-12-22T12:22:06;97975.66;;;9.95
24740;BMP280;45234;48.148;17.128;2023-12-22T12:24:35;97989.56;;;9.89
24740;BMP280;45234;48.148;17.128;2023-12-22T12:27:02;98063.81;;;9.60
24740;BMP280;45234;48.148;17.128;2023-12-22T12:29:30;98133.78;;;8.90
24740;BMP280;45234;48.148;17.128;2023-12-22T12:32:06;98042.81;;;7.95
24740;BMP280;45234;48.148;17.128;2023-12-22T12:34:34;98022.09;;;7.12
24740;BMP280;45234;48.148;17.128;2023-12-22T12:37:01;98025.28;;;6.77
24740;BMP280;45234;48.148;17.128;2023-12-22T12:39:31;98012.63;;;6.32
24740;BMP280;45234;48.148;17.128;2023-12-22T12:42:01;98011.44;;;6.10
24740;BMP280;45234;48.148;17.128;2023-12-22T12:44:30;98022.03;;;5.95
24740;BMP280;45234;48.148;17.128;2023-12-22T12:47:01;98048.56;;;5.83
24740;BMP280;45234;48.148;17.128;2023-12-22T12:49:37;98061.84;;;5.80
24740;BMP280;45234;48.148;17.128;2023-12-22T12:52:05;98045.50;;;5.74
24740;BMP280;45234;48.148;17.128;2023-12-22T12:54:33;98019.59;;;5.69
24740;BMP280;45234;48.148;17.128;2023-12-22T12:56:59;98014.16;;;5.84
24740;BMP280;45234;48.148;17.128;2023-12-22T12:59:27;97996.00;;;5.85
24740;BMP280;45234;48.148;17.128;2023-12-22T13:01:54;98004.72;;;5.78
24740;BMP280;45234;48.148;17.128;2023-12-22T13:04:21;98015.03;;;5.71
24740;BMP280;45234;48.148;17.128;2023-12-22T13:06:51;98006.88;;;5.81
24740;BMP280;45234;48.148;17.128;2023-12-22T13:09:19;98006.19;;;5.98
24740;BMP280;45234;48.148;17.128;2023-12-22T13:11:46;97997.34;;;5.88
24740;BMP280;45234;48.148;17.128;2023-12-22T13:14:23;97994.91;;;5.93
24740;BMP280;45234;48.148;17.128;2023-12-22T13:16:54;97981.16;;;6.05
24740;BMP280;45234;48.148;17.128;2023-12-22T13:19:25;97991.44;;;6.12
24740;BMP280;45234;48.148;17.128;2023-12-22T13:21:54;97992.00;;;6.14
24740;BMP280;45234;48.148;17.128;2023-12-22T13:24:21;98007.81;;;6.18
24740;BMP280;45234;48.148;17.128;2023-12-22T13:27:07;98023.44;;;6.16
24740;BMP280;45234;48.148;17.128;2023-12-22T13:29:45;98025.94;;;5.98
24740;BMP280;45234;48.148;17.128;2023-12-22T13:32:17;98009.28;;;6.07
24740;BMP280;45234;48.148;17.128;2023-12-22T13:34:54;98006.94;;;6.24
24740;BMP280;45234;48.148;17.128;2023-12-22T13:37:22;98000.88;;;6.43
24740;BMP280;45234;48.148;17.128;2023-12-22T13:39:51;98009.38;;;6.44
24740;BMP280;45234;48.148;17.128;2023-12-22T13:42:19;98013.25;;;6.53
24740;BMP280;45234;48.148;17.128;2023-12-22T13:44:49;98002.97;;;6.53
24740;BMP280;45234;48.148;17.128;2023-12-22T13:47:20;98015.13;;;6.64
24740;BMP280;45234;48.148;17.128;2023-12-22T13:49:47;98000.31;;;6.78
24740;BMP280;45234;48.148;17.128;2023-12-22T13:52:31;97985.31;;;6.75
24740;BMP280;45234;48.148;17.128;2023-12-22T13:55:15;97987.88;;;6.75
24740;BMP280;45234;48.148;17.128;2023-12-22T13:57:42;97992.38;;;6.79
24740;BMP280;45234;48.148;17.128;2023-12-22T14:02:49;98034.41;;;6.73
24740;BMP280;45234;48.148;17.128;2023-12-22T14:05:17;98030.56;;;6.64
24740;BMP280;45234;48.148;17.128;2023-12-22T14:07:44;98026.97;;;6.65
24740;BMP280;45234;48.148;17.128;2023-12-22T14:10:12;98038.91;;;6.59
24740;BMP280;45234;48.148;17.128;2023-12-22T14:12:40;98047.28;;;6.55
24740;BMP280;45234;48.148;17.128;2023-12-22T14:15:11;98054.09;;;6.43
24740;BMP280;45234;48.148;17.128;2023-12-22T14:17:38;98049.41;;;6.33
24740;BMP280;45234;48.148;17.128;2023-12-22T14:20:06;98047.94;;;6.19
24740;BMP280;45234;48.148;17.128;2023-12-22T14:22:35;98043.69;;;6.06
24740;BMP280;45234;48.148;17.128;2023-12-22T14:25:04;98033.09;;;5.96
24740;BMP280;45234;48.148;17.128;2023-12-22T14:27:31;98028.63;;;5.85